createdAt,value
2019-05-26T00:00:28.147Z,0.00
2019-05-26T00:01:28.116Z,0.00
2019-05-26T00:02:28.164Z,0.00
2019-05-26T00:03:28.093Z,0.00
2019-05-26T00:04:28.205Z,0.00
2019-05-26T00:05:28.132Z,0.00
2019-05-26T00:06:28.107Z,0.00
2019-05-26T00:07:30.851Z,0.00
2019-05-26T00:08:30.148Z,0.00
2019-05-26T00:09:28.047Z,0.00
2019-05-26T00:10:35.077Z,0.00
2019-05-26T00:11:28.018Z,0.00
2019-05-26T00:12:28.024Z,0.00
2019-05-26T00:13:27.983Z,0.00
2019-05-26T00:14:30.016Z,0.00
2019-05-26T00:15:27.962Z,0.00
2019-05-26T00:16:28.973Z,0.00
2019-05-26T00:17:27.940Z,0.00
2019-05-26T00:18:27.964Z,0.00
2019-05-26T00:19:27.935Z,0.00
2019-05-26T00:20:27.977Z,0.00
2019-05-26T00:21:27.942Z,0.00
2019-05-26T00:22:27.999Z,0.00
2019-05-26T00:23:27.880Z,0.00
2019-05-26T00:24:27.933Z,0.00
2019-05-26T00:25:27.853Z,0.00
2019-05-26T00:26:27.916Z,0.00
2019-05-26T00:27:27.838Z,0.00
2019-05-26T00:28:27.828Z,0.00
2019-05-26T00:29:27.846Z,0.00
2019-05-26T00:30:27.841Z,0.00
2019-05-26T00:31:27.786Z,0.00
2019-05-26T00:32:27.860Z,0.00
2019-05-26T00:33:27.761Z,0.00
2019-05-26T00:34:27.767Z,0.00
2019-05-26T00:35:27.755Z,0.00
2019-05-26T00:36:27.780Z,0.00
2019-05-26T00:37:27.719Z,0.00
2019-05-26T00:38:27.795Z,0.00
2019-05-26T00:39:27.695Z,0.00
2019-05-26T00:40:27.737Z,0.00
2019-05-26T00:41:27.679Z,0.00
2019-05-26T00:42:27.718Z,0.00
2019-05-26T00:43:27.649Z,0.00
2019-05-26T00:44:27.732Z,0.00
2019-05-26T00:45:27.648Z,0.00
2019-05-26T00:46:27.644Z,0.00
2019-05-26T00:47:27.608Z,0.00
2019-05-26T00:48:27.658Z,0.00
2019-05-26T00:49:27.586Z,0.00
2019-05-26T00:50:27.600Z,0.00
2019-05-26T00:51:27.559Z,0.00
2019-05-26T00:52:29.637Z,0.00
2019-05-26T00:53:27.537Z,0.00
2019-05-26T00:54:29.647Z,0.00
2019-05-26T00:55:27.553Z,0.00
2019-05-26T00:56:28.536Z,0.00
2019-05-26T00:57:27.495Z,0.00
2019-05-26T00:58:27.524Z,0.00
2019-05-26T00:59:27.471Z,0.00
2019-05-26T01:00:28.550Z,0.00
2019-05-26T01:01:27.456Z,0.00
2019-05-26T01:02:28.473Z,0.00
2019-05-26T01:03:27.426Z,0.00
2019-05-26T01:04:27.461Z,0.00
2019-05-26T01:05:27.421Z,0.00
2019-05-26T01:06:27.474Z,0.00
2019-05-26T01:07:27.398Z,0.00
2019-05-26T01:08:27.386Z,0.00
2019-05-26T01:09:27.362Z,0.00
2019-05-26T01:10:27.432Z,0.00
2019-05-26T01:11:27.339Z,0.00
2019-05-26T01:12:27.412Z,0.00
2019-05-26T01:13:27.315Z,0.00
2019-05-26T01:14:27.331Z,0.00
2019-05-26T01:15:27.306Z,0.00
2019-05-26T01:16:27.337Z,0.00
2019-05-26T01:17:27.275Z,0.00
2019-05-26T01:18:27.352Z,0.00
2019-05-26T01:19:27.247Z,0.00
2019-05-26T01:20:27.292Z,0.00
2019-05-26T01:21:27.227Z,0.00
2019-05-26T01:22:27.277Z,0.00
2019-05-26T01:23:27.205Z,0.00
2019-05-26T01:24:27.291Z,0.00
2019-05-26T01:25:27.195Z,0.00
2019-05-26T01:26:27.202Z,0.00
2019-05-26T01:27:27.159Z,0.00
2019-05-26T01:28:27.216Z,0.00
2019-05-26T01:29:27.138Z,0.00
2019-05-26T01:30:27.161Z,0.00
2019-05-26T01:31:27.113Z,0.00
2019-05-26T01:32:27.142Z,0.00
2019-05-26T01:33:27.091Z,0.00
2019-05-26T01:34:27.154Z,0.00
2019-05-26T01:35:27.086Z,0.00
2019-05-26T01:36:27.169Z,0.00
2019-05-26T01:37:27.047Z,0.00
2019-05-26T01:38:42.029Z,0.00
2019-05-26T01:39:27.030Z,0.00
2019-05-26T01:40:27.034Z,0.00
2019-05-26T01:41:27.009Z,0.00
2019-05-26T01:42:27.006Z,0.00
2019-05-26T01:43:26.984Z,0.00
2019-05-26T01:44:27.017Z,0.00
2019-05-26T01:45:26.974Z,0.00
2019-05-26T01:46:27.102Z,0.00
2019-05-26T01:47:26.937Z,0.00
2019-05-26T01:48:26.943Z,0.00
2019-05-26T01:49:26.916Z,0.00
2019-05-26T01:50:26.990Z,0.00
2019-05-26T01:51:26.893Z,0.00
2019-05-26T01:52:26.973Z,0.00
2019-05-26T01:53:26.871Z,0.00
2019-05-26T01:54:26.883Z,0.00
2019-05-26T01:55:26.876Z,0.00
2019-05-26T01:56:26.897Z,0.00
2019-05-26T01:57:26.827Z,0.00
2019-05-26T01:58:26.910Z,0.00
2019-05-26T01:59:26.802Z,0.00
2019-05-26T02:00:26.821Z,0.00
2019-05-26T02:01:26.798Z,0.00
2019-05-26T02:02:26.837Z,0.00
2019-05-26T02:03:26.764Z,0.00
2019-05-26T02:04:26.865Z,0.00
2019-05-26T02:05:26.741Z,0.00
2019-05-26T02:06:26.793Z,0.00
2019-05-26T02:07:26.712Z,0.00
2019-05-26T02:08:38.757Z,0.00
2019-05-26T02:09:27.689Z,0.00
2019-05-26T02:10:26.788Z,0.00
2019-05-26T02:11:26.684Z,0.00
2019-05-26T02:12:26.698Z,0.00
2019-05-26T02:13:26.649Z,0.00
2019-05-26T02:14:26.724Z,0.00
2019-05-26T02:15:26.628Z,0.00
2019-05-26T02:16:26.655Z,0.00
2019-05-26T02:17:26.615Z,0.00
2019-05-26T02:18:26.637Z,0.00
2019-05-26T02:19:26.585Z,0.00
2019-05-26T02:20:26.650Z,0.00
2019-05-26T02:21:26.572Z,0.00
2019-05-26T02:22:33.532Z,0.00
2019-05-26T02:23:26.537Z,0.00
2019-05-26T02:24:27.601Z,0.00
2019-05-26T02:25:26.516Z,0.00
2019-05-26T02:26:27.541Z,0.00
2019-05-26T02:27:26.492Z,0.00
2019-05-26T02:28:26.503Z,0.00
2019-05-26T02:29:26.470Z,0.00
2019-05-26T02:30:26.515Z,0.00
2019-05-26T02:31:26.470Z,0.00
2019-05-26T02:32:26.529Z,0.00
2019-05-26T02:33:26.430Z,0.00
2019-05-26T02:34:26.443Z,0.00
2019-05-26T02:35:26.405Z,0.00
2019-05-26T02:36:26.493Z,0.00
2019-05-26T02:37:26.384Z,0.00
2019-05-26T02:38:26.826Z,0.00
2019-05-26T02:39:26.366Z,4.00
2019-05-26T02:40:26.379Z,4.00
2019-05-26T02:41:26.360Z,4.00
2019-05-26T02:42:26.395Z,4.00
2019-05-26T02:43:26.324Z,0.00
2019-05-26T02:44:26.409Z,4.00
2019-05-26T02:45:26.295Z,4.00
2019-05-26T02:46:26.350Z,8.00
2019-05-26T02:47:26.272Z,4.00
2019-05-26T02:48:26.336Z,8.00
2019-05-26T02:49:26.256Z,8.00
2019-05-26T02:50:26.356Z,8.00
2019-05-26T02:51:26.249Z,12.00
2019-05-26T02:52:26.258Z,12.00
2019-05-26T02:53:26.210Z,12.00
2019-05-26T02:54:26.274Z,12.00
2019-05-26T02:55:26.186Z,12.00
2019-05-26T02:56:26.216Z,20.00
2019-05-26T02:57:26.162Z,20.00
2019-05-26T02:58:26.205Z,24.00
2019-05-26T02:59:26.144Z,20.00
2019-05-26T03:00:26.211Z,24.00
2019-05-26T03:01:26.132Z,28.00
2019-05-26T03:02:26.122Z,32.00
2019-05-26T03:03:26.099Z,36.00
2019-05-26T03:04:26.137Z,40.00
2019-05-26T03:05:26.074Z,44.00
2019-05-26T03:06:26.180Z,44.00
2019-05-26T03:07:26.056Z,52.00
2019-05-26T03:08:33.032Z,56.00
2019-05-26T03:09:26.030Z,60.00
2019-05-26T03:10:27.100Z,64.00
2019-05-26T03:11:26.043Z,68.00
2019-05-26T03:12:27.008Z,72.00
2019-05-26T03:13:25.990Z,80.00
2019-05-26T03:14:26.016Z,88.00
2019-05-26T03:15:25.962Z,96.00
2019-05-26T03:16:26.042Z,100.00
2019-05-26T03:17:25.940Z,108.00
2019-05-26T03:18:26.025Z,116.00
2019-05-26T03:19:25.920Z,120.00
2019-05-26T03:20:25.941Z,132.00
2019-05-26T03:21:25.911Z,144.00
2019-05-26T03:22:25.952Z,152.00
2019-05-26T03:23:25.875Z,164.00
2019-05-26T03:24:25.966Z,176.00
2019-05-26T03:25:25.850Z,188.00
2019-05-26T03:26:25.879Z,204.00
2019-05-26T03:27:25.850Z,216.00
2019-05-26T03:28:25.890Z,232.00
2019-05-26T03:29:25.814Z,248.00
2019-05-26T03:30:25.906Z,264.00
2019-05-26T03:31:25.788Z,280.00
2019-05-26T03:32:25.845Z,296.00
2019-05-26T03:33:25.765Z,308.00
2019-05-26T03:34:25.877Z,324.00
2019-05-26T03:35:25.748Z,340.00
2019-05-26T03:36:25.843Z,352.00
2019-05-26T03:37:25.732Z,372.00
2019-05-26T03:38:25.756Z,384.00
2019-05-26T03:39:42.675Z,400.00
2019-05-26T03:40:26.687Z,412.00
2019-05-26T03:41:25.776Z,428.00
2019-05-26T03:42:25.679Z,448.00
2019-05-26T03:43:25.684Z,460.00
2019-05-26T03:44:25.654Z,480.00
2019-05-26T03:45:25.697Z,500.00
2019-05-26T03:46:25.620Z,520.00
2019-05-26T03:47:25.642Z,540.00
2019-05-26T03:48:25.598Z,568.00
2019-05-26T03:49:25.626Z,596.00
2019-05-26T03:50:25.573Z,632.00
2019-05-26T03:51:25.639Z,668.00
2019-05-26T03:52:25.574Z,708.00
2019-05-26T03:53:25.653Z,748.00
2019-05-26T03:54:25.530Z,792.00
2019-05-26T03:55:32.536Z,836.00
2019-05-26T03:56:25.518Z,884.00
2019-05-26T03:57:26.529Z,936.00
2019-05-26T03:58:25.491Z,988.00
2019-05-26T03:59:25.488Z,1044.00
2019-05-26T04:00:25.463Z,1096.00
2019-05-26T04:01:25.511Z,1160.00
2019-05-26T04:02:25.455Z,1216.00
2019-05-26T04:03:25.516Z,1276.00
2019-05-26T04:04:25.452Z,1332.00
2019-05-26T04:05:25.431Z,1392.00
2019-05-26T04:06:25.400Z,1448.00
2019-05-26T04:07:25.470Z,1500.00
2019-05-26T04:08:25.374Z,1564.00
2019-05-26T04:09:25.490Z,1620.00
2019-05-26T04:10:25.353Z,1676.00
2019-05-26T04:11:25.373Z,1728.00
2019-05-26T04:12:25.348Z,1780.00
2019-05-26T04:13:25.380Z,1824.00
2019-05-26T04:14:25.312Z,1868.00
2019-05-26T04:15:25.406Z,1904.00
2019-05-26T04:16:25.287Z,1936.00
2019-05-26T04:17:25.342Z,1964.00
2019-05-26T04:18:25.264Z,1988.00
2019-05-26T04:19:25.318Z,2012.00
2019-05-26T04:20:25.243Z,2032.00
2019-05-26T04:21:25.332Z,2048.00
2019-05-26T04:22:25.250Z,2064.00
2019-05-26T04:23:25.323Z,2080.00
2019-05-26T04:24:25.195Z,2088.00
2019-05-26T04:25:25.274Z,2096.00
2019-05-26T04:26:25.179Z,2104.00
2019-05-26T04:27:25.199Z,2108.00
2019-05-26T04:28:25.155Z,2112.00
2019-05-26T04:29:25.184Z,2112.00
2019-05-26T04:30:25.132Z,2116.00
2019-05-26T04:31:25.200Z,2116.00
2019-05-26T04:32:25.121Z,2116.00
2019-05-26T04:33:25.107Z,2120.00
2019-05-26T04:34:25.084Z,2116.00
2019-05-26T04:35:25.123Z,2116.00
2019-05-26T04:36:25.060Z,2120.00
2019-05-26T04:37:28.546Z,2124.00
2019-05-26T04:38:25.039Z,2140.00
2019-05-26T04:39:32.111Z,2152.00
2019-05-26T04:40:27.509Z,2172.00
2019-05-26T04:41:32.024Z,2208.00
2019-05-26T04:42:25.010Z,2232.00
2019-05-26T04:43:27.031Z,2264.00
2019-05-26T04:44:24.991Z,2296.00
2019-05-26T04:45:24.984Z,2320.00
2019-05-26T04:46:24.960Z,2352.00
2019-05-26T04:47:25.027Z,2376.00
2019-05-26T04:48:24.932Z,2400.00
2019-05-26T04:49:25.014Z,2440.00
2019-05-26T04:50:24.912Z,2476.00
2019-05-26T04:51:24.927Z,2524.00
2019-05-26T04:52:24.907Z,2572.00
2019-05-26T04:53:24.936Z,2628.00
2019-05-26T04:54:24.872Z,2696.00
2019-05-26T04:55:24.964Z,2764.00
2019-05-26T04:56:24.848Z,2836.00
2019-05-26T04:57:24.897Z,2912.00
2019-05-26T04:58:24.824Z,2992.00
2019-05-26T04:59:24.880Z,3076.00
2019-05-26T05:00:24.799Z,3156.00
2019-05-26T05:01:24.889Z,3248.00
2019-05-26T05:02:24.813Z,3348.00
2019-05-26T05:03:24.806Z,3448.00
2019-05-26T05:04:24.755Z,3556.00
2019-05-26T05:05:24.814Z,3664.00
2019-05-26T05:06:24.738Z,3768.00
2019-05-26T05:07:28.250Z,3872.00
2019-05-26T05:08:24.729Z,3968.00
2019-05-26T05:09:24.743Z,4052.00
2019-05-26T05:10:40.947Z,4124.00
2019-05-26T05:11:25.680Z,4180.00
2019-05-26T05:12:24.761Z,4228.00
2019-05-26T05:13:25.121Z,4268.00
2019-05-26T05:14:24.671Z,4288.00
2019-05-26T05:15:24.636Z,4300.00
2019-05-26T05:16:24.685Z,4312.00
2019-05-26T05:17:24.618Z,4316.00
2019-05-26T05:18:24.730Z,4324.00
2019-05-26T05:19:24.591Z,4344.00
2019-05-26T05:20:24.610Z,4376.00
2019-05-26T05:21:24.568Z,4436.00
2019-05-26T05:22:24.624Z,4528.00
2019-05-26T05:23:24.560Z,4680.00
2019-05-26T05:24:32.523Z,5032.00
2019-05-26T05:25:24.523Z,5232.00
2019-05-26T05:26:24.518Z,5196.00
2019-05-26T05:27:24.501Z,5188.00
2019-05-26T05:28:26.542Z,5208.00
2019-05-26T05:29:24.484Z,5460.00
2019-05-26T05:30:25.499Z,5552.00
2019-05-26T05:31:24.455Z,5696.00
2019-05-26T05:32:24.487Z,5964.00
2019-05-26T05:33:24.454Z,6384.00
2019-05-26T05:34:24.536Z,6460.00
2019-05-26T05:35:24.416Z,6544.00
2019-05-26T05:36:24.412Z,6952.00
2019-05-26T05:37:25.287Z,7200.00
2019-05-26T05:38:24.456Z,7276.00
2019-05-26T05:39:24.367Z,7284.00
2019-05-26T05:40:24.439Z,7260.00
2019-05-26T05:41:24.345Z,7312.00
2019-05-26T05:42:24.352Z,7172.00
2019-05-26T05:43:24.339Z,7144.00
2019-05-26T05:44:24.364Z,7532.00
2019-05-26T05:45:24.310Z,7844.00
2019-05-26T05:46:24.381Z,7652.00
2019-05-26T05:47:24.277Z,7668.00
2019-05-26T05:48:24.319Z,7560.00
2019-05-26T05:49:24.255Z,8256.00
2019-05-26T05:50:24.305Z,8164.00
2019-05-26T05:51:24.235Z,8580.00
2019-05-26T05:52:24.317Z,9104.00
2019-05-26T05:53:24.224Z,10468.00
2019-05-26T05:54:24.229Z,10692.00
2019-05-26T05:55:24.190Z,9956.00
2019-05-26T05:56:24.241Z,8908.00
2019-05-26T05:57:24.167Z,8940.00
2019-05-26T05:58:24.205Z,8740.00
2019-05-26T05:59:24.142Z,8648.00
2019-05-26T06:00:24.167Z,8752.00
2019-05-26T06:01:24.123Z,8856.00
2019-05-26T06:02:24.182Z,9204.00
2019-05-26T06:03:24.114Z,9256.00
2019-05-26T06:04:24.195Z,9620.00
2019-05-26T06:05:24.075Z,9740.00
2019-05-26T06:06:24.105Z,10160.00
2019-05-26T06:07:24.054Z,10172.00
2019-05-26T06:08:26.099Z,10172.00
2019-05-26T06:09:24.031Z,10348.00
2019-05-26T06:10:41.029Z,10440.00
2019-05-26T06:11:24.011Z,10660.00
2019-05-26T06:12:26.092Z,10352.00
2019-05-26T06:13:24.004Z,10104.00
2019-05-26T06:14:26.078Z,9932.00
2019-05-26T06:15:23.966Z,9252.00
2019-05-26T06:16:23.971Z,9092.00
2019-05-26T06:17:23.947Z,8832.00
2019-05-26T06:18:24.013Z,8656.00
2019-05-26T06:19:23.923Z,8528.00
2019-05-26T06:20:23.997Z,8456.00
2019-05-26T06:21:23.900Z,8568.00
2019-05-26T06:22:23.908Z,8672.00
2019-05-26T06:23:23.892Z,8540.00
2019-05-26T06:24:23.932Z,8412.00
2019-05-26T06:25:23.864Z,8256.00
2019-05-26T06:26:23.935Z,8252.00
2019-05-26T06:27:23.830Z,8192.00
2019-05-26T06:28:23.931Z,8068.00
2019-05-26T06:29:23.809Z,7936.00
2019-05-26T06:30:23.866Z,7896.00
2019-05-26T06:31:23.787Z,8000.00
2019-05-26T06:32:23.876Z,8076.00
2019-05-26T06:33:23.779Z,8096.00
2019-05-26T06:34:23.787Z,8236.00
2019-05-26T06:35:23.742Z,8076.00
2019-05-26T06:36:23.802Z,8256.00
2019-05-26T06:37:23.720Z,8456.00
2019-05-26T06:38:23.745Z,8336.00
2019-05-26T06:39:23.698Z,8360.00
2019-05-26T06:40:23.724Z,8384.00
2019-05-26T06:41:32.779Z,8744.00
2019-05-26T06:42:24.664Z,9112.00
2019-05-26T06:43:23.775Z,9348.00
2019-05-26T06:44:23.640Z,9636.00
2019-05-26T06:45:23.655Z,10460.00
2019-05-26T06:46:23.619Z,11628.00
2019-05-26T06:47:23.673Z,12216.00
2019-05-26T06:48:26.719Z,12392.00
2019-05-26T06:49:23.686Z,11936.00
2019-05-26T06:50:23.573Z,11172.00
2019-05-26T06:51:24.622Z,10400.00
2019-05-26T06:52:23.555Z,9516.00
2019-05-26T06:53:24.638Z,8760.00
2019-05-26T06:54:23.545Z,8196.00
2019-05-26T06:55:32.531Z,7676.00
2019-05-26T06:56:23.508Z,7276.00
2019-05-26T06:57:23.619Z,7080.00
2019-05-26T06:58:23.488Z,7044.00
2019-05-26T06:59:25.524Z,7032.00
2019-05-26T07:00:23.464Z,7044.00
2019-05-26T07:01:24.482Z,7168.00
2019-05-26T07:02:23.440Z,7384.00
2019-05-26T07:03:23.476Z,7644.00
2019-05-26T07:04:23.437Z,7788.00
2019-05-26T07:05:23.486Z,7864.00
2019-05-26T07:06:23.398Z,8040.00
2019-05-26T07:07:23.397Z,8204.00
2019-05-26T07:08:23.446Z,8268.00
2019-05-26T07:09:23.442Z,8228.00
2019-05-26T07:10:23.360Z,8176.00
2019-05-26T07:11:23.426Z,8068.00
2019-05-26T07:12:23.330Z,7760.00
2019-05-26T07:13:23.337Z,7636.00
2019-05-26T07:14:23.322Z,7628.00
2019-05-26T07:15:23.350Z,7756.00
2019-05-26T07:16:36.867Z,7756.00
2019-05-26T07:17:24.275Z,7360.00
2019-05-26T07:18:23.372Z,6824.00
2019-05-26T07:19:23.267Z,6616.00
2019-05-26T07:20:23.282Z,6712.00
2019-05-26T07:21:23.231Z,6804.00
2019-05-26T07:22:23.297Z,6724.00
2019-05-26T07:23:23.207Z,6612.00
2019-05-26T07:24:23.237Z,6488.00
2019-05-26T07:25:23.186Z,6424.00
2019-05-26T07:26:23.220Z,6468.00
2019-05-26T07:27:23.162Z,6568.00
2019-05-26T07:28:23.234Z,6644.00
2019-05-26T07:29:23.156Z,6708.00
2019-05-26T07:30:23.581Z,6740.00
2019-05-26T07:31:23.117Z,6776.00
2019-05-26T07:32:23.160Z,6792.00
2019-05-26T07:33:23.099Z,6796.00
2019-05-26T07:34:23.207Z,6692.00
2019-05-26T07:35:23.072Z,6528.00
2019-05-26T07:36:23.084Z,6384.00
2019-05-26T07:37:23.054Z,6316.00
2019-05-26T07:38:38.048Z,6544.00
2019-05-26T07:39:23.042Z,7024.00
2019-05-26T07:40:23.026Z,7572.00
2019-05-26T07:41:23.004Z,7888.00
2019-05-26T07:42:23.022Z,7888.00
2019-05-26T07:43:22.983Z,7828.00
2019-05-26T07:44:23.068Z,7744.00
2019-05-26T07:45:22.962Z,7744.00
2019-05-26T07:46:23.049Z,7856.00
2019-05-26T07:47:22.937Z,8076.00
2019-05-26T07:48:22.967Z,8360.00
2019-05-26T07:49:22.931Z,8608.00
2019-05-26T07:50:22.910Z,8672.00
2019-05-26T07:51:22.895Z,8568.00
2019-05-26T07:52:22.990Z,8408.00
2019-05-26T07:53:22.870Z,8220.00
2019-05-26T07:54:25.836Z,7936.00
2019-05-26T07:55:22.848Z,7516.00
2019-05-26T07:56:22.914Z,7144.00
2019-05-26T07:57:22.825Z,6916.00
2019-05-26T07:58:22.827Z,6888.00
2019-05-26T07:59:22.817Z,7072.00
2019-05-26T08:00:22.795Z,7336.00
2019-05-26T08:01:24.524Z,7656.00
2019-05-26T08:02:22.855Z,8184.00
2019-05-26T08:03:22.760Z,8864.00
2019-05-26T08:04:22.768Z,9504.00
2019-05-26T08:05:22.736Z,10328.00
2019-05-26T08:06:22.779Z,11148.00
2019-05-26T08:07:23.295Z,11748.00
2019-05-26T08:08:22.793Z,11904.00
2019-05-26T08:09:22.711Z,11808.00
2019-05-26T08:10:22.684Z,11512.00
2019-05-26T08:11:22.670Z,11120.00
2019-05-26T08:12:26.913Z,10700.00
2019-05-26T08:13:23.646Z,10540.00
2019-05-26T08:14:22.766Z,10712.00
2019-05-26T08:15:22.624Z,11064.00
2019-05-26T08:16:22.646Z,11724.00
2019-05-26T08:17:22.602Z,12584.00
2019-05-26T08:18:22.656Z,13408.00
2019-05-26T08:19:22.617Z,14040.00
2019-05-26T08:20:22.570Z,14116.00
2019-05-26T08:21:22.556Z,13732.00
2019-05-26T08:22:29.548Z,13380.00
2019-05-26T08:23:22.539Z,13160.00
2019-05-26T08:24:24.562Z,13152.00
2019-05-26T08:25:22.529Z,13244.00
2019-05-26T08:26:23.532Z,13484.00
2019-05-26T08:27:22.487Z,13724.00
2019-05-26T08:28:22.519Z,13860.00
2019-05-26T08:29:22.464Z,14400.00
2019-05-26T08:30:22.471Z,15808.00
2019-05-26T08:31:22.440Z,17376.00
2019-05-26T08:32:22.458Z,18784.00
2019-05-26T08:33:22.419Z,19648.00
2019-05-26T08:34:22.460Z,19200.00
2019-05-26T08:35:22.419Z,19328.00
2019-05-26T08:36:22.473Z,20096.00
2019-05-26T08:37:22.383Z,20640.00
2019-05-26T08:38:22.385Z,21088.00
2019-05-26T08:39:22.354Z,21216.00
2019-05-26T08:40:22.362Z,20256.00
2019-05-26T08:41:22.332Z,20032.00
2019-05-26T08:42:27.227Z,19936.00
2019-05-26T08:43:23.307Z,19872.00
2019-05-26T08:44:22.322Z,19232.00
2019-05-26T08:45:22.926Z,17856.00
2019-05-26T08:46:22.335Z,15968.00
2019-05-26T08:47:22.264Z,14128.00
2019-05-26T08:48:22.353Z,12924.00
2019-05-26T08:49:22.245Z,12192.00
2019-05-26T08:50:22.253Z,11836.00
2019-05-26T08:51:22.219Z,11868.00
2019-05-26T08:52:22.274Z,12136.00
2019-05-26T08:53:22.201Z,12432.00
2019-05-26T08:54:22.289Z,12656.00
2019-05-26T08:55:22.189Z,12748.00
2019-05-26T08:56:22.201Z,12736.00
2019-05-26T08:57:22.157Z,12752.00
2019-05-26T08:58:22.215Z,13168.00
2019-05-26T08:59:22.140Z,13860.00
2019-05-26T09:00:22.146Z,14628.00
2019-05-26T09:01:22.113Z,15392.00
2019-05-26T09:02:22.138Z,16320.00
2019-05-26T09:03:22.087Z,17472.00
2019-05-26T09:04:23.177Z,18592.00
2019-05-26T09:05:22.084Z,19360.00
2019-05-26T09:06:30.060Z,19168.00
2019-05-26T09:07:22.042Z,18272.00
2019-05-26T09:08:29.555Z,17344.00
2019-05-26T09:09:22.026Z,16640.00
2019-05-26T09:10:22.033Z,16256.00
2019-05-26T09:11:21.999Z,16000.00
2019-05-26T09:12:22.003Z,15936.00
2019-05-26T09:13:21.977Z,16704.00
2019-05-26T09:14:25.388Z,17216.00
2019-05-26T09:15:21.972Z,17184.00
2019-05-26T09:16:22.029Z,17280.00
2019-05-26T09:17:21.931Z,17664.00
2019-05-26T09:18:21.941Z,18432.00
2019-05-26T09:19:21.912Z,19232.00
2019-05-26T09:20:21.923Z,20640.00
2019-05-26T09:21:21.891Z,22176.00
2019-05-26T09:22:21.968Z,22496.00
2019-05-26T09:23:21.864Z,21248.00
2019-05-26T09:24:21.880Z,19584.00
2019-05-26T09:25:21.862Z,18912.00
2019-05-26T09:26:21.893Z,19808.00
2019-05-26T09:27:21.824Z,21632.00
2019-05-26T09:28:21.907Z,22208.00
2019-05-26T09:29:21.797Z,20672.00
2019-05-26T09:30:21.809Z,18912.00
2019-05-26T09:31:21.776Z,19328.00
2019-05-26T09:32:21.835Z,21248.00
2019-05-26T09:33:21.759Z,23904.00
2019-05-26T09:34:21.850Z,26336.00
2019-05-26T09:35:21.745Z,26240.00
2019-05-26T09:36:21.757Z,24256.00
2019-05-26T09:37:21.726Z,23616.00
2019-05-26T09:38:21.771Z,23840.00
2019-05-26T09:39:21.698Z,23808.00
2019-05-26T09:40:21.721Z,23136.00
2019-05-26T09:41:21.670Z,22560.00
2019-05-26T09:42:22.478Z,22944.00
2019-05-26T09:43:21.646Z,22112.00
2019-05-26T09:44:21.711Z,21344.00
2019-05-26T09:45:21.640Z,20960.00
2019-05-26T09:46:21.725Z,20480.00
2019-05-26T09:47:21.606Z,20032.00
2019-05-26T09:48:23.684Z,20192.00
2019-05-26T09:49:21.585Z,21408.00
2019-05-26T09:50:21.611Z,22752.00
2019-05-26T09:51:21.564Z,24160.00
2019-05-26T09:52:30.571Z,23584.00
2019-05-26T09:53:21.540Z,22752.00
2019-05-26T09:54:21.577Z,22688.00
2019-05-26T09:55:21.521Z,23616.00
2019-05-26T09:56:22.542Z,26144.00
2019-05-26T09:57:21.535Z,29312.00
2019-05-26T09:58:21.500Z,29312.00
2019-05-26T09:59:21.474Z,29088.00
2019-05-26T10:00:21.469Z,29760.00
2019-05-26T10:01:21.483Z,27904.00
2019-05-26T10:02:21.528Z,28064.00
2019-05-26T10:03:21.430Z,29184.00
2019-05-26T10:04:21.441Z,28864.00
2019-05-26T10:05:21.408Z,27680.00
2019-05-26T10:06:21.489Z,28416.00
2019-05-26T10:07:21.390Z,29536.00
2019-05-26T10:08:21.465Z,30016.00
2019-05-26T10:09:21.363Z,29536.00
2019-05-26T10:10:21.356Z,28896.00
2019-05-26T10:11:21.357Z,28960.00
2019-05-26T10:12:21.391Z,28480.00
2019-05-26T10:13:31.477Z,28384.00
2019-05-26T10:14:22.305Z,28416.00
2019-05-26T10:15:21.308Z,27328.00
2019-05-26T10:16:21.296Z,26208.00
2019-05-26T10:17:23.331Z,23904.00
2019-05-26T10:18:21.260Z,21856.00
2019-05-26T10:19:21.335Z,19328.00
2019-05-26T10:20:21.240Z,17952.00
2019-05-26T10:21:21.280Z,17280.00
2019-05-26T10:22:21.215Z,17408.00
2019-05-26T10:23:21.262Z,18528.00
2019-05-26T10:24:21.195Z,20416.00
2019-05-26T10:25:21.274Z,23072.00
2019-05-26T10:26:21.186Z,25408.00
2019-05-26T10:27:21.187Z,26880.00
2019-05-26T10:28:21.152Z,29056.00
2019-05-26T10:29:21.199Z,31904.00
2019-05-26T10:30:21.137Z,31840.00
2019-05-26T10:31:21.255Z,32032.00
2019-05-26T10:32:21.105Z,28576.00
2019-05-26T10:33:28.087Z,30208.00
2019-05-26T10:34:21.086Z,34144.00
2019-05-26T10:36:21.073Z,29760.00
2019-05-26T10:37:22.073Z,34336.00
2019-05-26T10:38:21.041Z,33568.00
2019-05-26T10:39:21.063Z,34880.00
2019-05-26T10:40:21.024Z,56608.00
2019-05-26T10:41:21.111Z,44640.00
2019-05-26T10:42:20.998Z,33664.00
2019-05-26T10:43:21.090Z,43040.00
2019-05-26T10:44:20.974Z,58848.00
2019-05-26T10:45:21.001Z,59104.00
2019-05-26T10:46:20.966Z,44288.00
2019-05-26T10:47:21.016Z,51552.00
2019-05-26T10:48:20.934Z,30592.00
2019-05-26T10:49:21.032Z,27104.00
2019-05-26T10:50:20.908Z,25824.00
2019-05-26T10:51:20.984Z,24640.00
2019-05-26T10:52:20.890Z,23712.00
2019-05-26T10:53:21.015Z,22624.00
2019-05-26T10:54:20.864Z,22592.00
2019-05-26T10:55:20.969Z,23584.00
2019-05-26T10:56:20.857Z,22432.00
2019-05-26T10:57:20.880Z,20064.00
2019-05-26T10:58:20.829Z,19808.00
2019-05-26T10:59:20.894Z,20608.00
2019-05-26T11:00:20.805Z,21952.00
2019-05-26T11:01:20.838Z,24512.00
2019-05-26T11:02:20.781Z,26784.00
2019-05-26T11:03:20.819Z,26400.00
2019-05-26T11:04:20.760Z,28032.00
2019-05-26T11:05:20.832Z,31680.00
2019-05-26T11:06:20.750Z,25472.00
2019-05-26T11:07:20.744Z,29728.00
2019-05-26T11:08:20.715Z,34080.00
2019-05-26T11:09:20.758Z,26080.00
2019-05-26T11:10:20.694Z,26080.00
2019-05-26T11:11:20.800Z,28896.00
2019-05-26T11:12:20.669Z,30336.00
2019-05-26T11:13:20.682Z,30944.00
2019-05-26T11:14:20.644Z,25312.00
2019-05-26T11:15:20.695Z,26368.00
2019-05-26T11:16:20.642Z,23904.00
2019-05-26T11:17:20.713Z,23424.00
2019-05-26T11:18:20.609Z,24160.00
2019-05-26T11:19:27.586Z,25632.00
2019-05-26T11:20:20.586Z,36608.00
2019-05-26T11:21:22.616Z,40192.00
2019-05-26T11:22:20.560Z,41664.00
2019-05-26T11:23:21.569Z,34720.00
2019-05-26T11:24:20.539Z,29088.00
2019-05-26T11:25:20.559Z,27008.00
2019-05-26T11:26:20.529Z,34624.00
2019-05-26T11:27:20.574Z,35904.00
2019-05-26T11:28:20.497Z,33856.00
2019-05-26T11:29:20.588Z,21664.00
2019-05-26T11:30:20.474Z,21024.00
2019-05-26T11:31:20.534Z,21888.00
2019-05-26T11:32:20.451Z,19520.00
2019-05-26T11:33:20.572Z,19968.00
2019-05-26T11:34:20.477Z,22880.00
2019-05-26T11:35:20.524Z,23392.00
2019-05-26T11:36:20.435Z,30112.00
2019-05-26T11:37:20.435Z,34912.00
2019-05-26T11:38:20.383Z,24864.00
2019-05-26T11:39:20.450Z,33824.00
2019-05-26T11:40:20.362Z,28416.00
2019-05-26T11:41:20.398Z,32064.00
2019-05-26T11:42:20.340Z,46720.00
2019-05-26T11:43:20.377Z,30208.00
2019-05-26T11:44:20.320Z,72448.00
2019-05-26T11:45:20.391Z,46752.00
2019-05-26T11:46:20.317Z,32896.00
2019-05-26T11:47:20.301Z,37216.00
2019-05-26T11:48:20.277Z,35648.00
2019-05-26T11:49:20.317Z,40640.00
2019-05-26T11:50:20.295Z,39936.00
2019-05-26T11:51:20.365Z,36160.00
2019-05-26T11:52:20.499Z,33280.00
2019-05-26T11:53:20.240Z,31456.00
2019-05-26T11:54:20.210Z,32096.00
2019-05-26T11:55:20.257Z,32512.00
2019-05-26T11:56:20.206Z,30976.00
2019-05-26T11:57:20.267Z,31232.00
2019-05-26T11:58:20.168Z,30432.00
2019-05-26T11:59:20.180Z,29856.00
2019-05-26T12:00:20.144Z,30112.00
2019-05-26T12:01:22.937Z,31456.00
2019-05-26T12:02:20.123Z,35712.00
2019-05-26T12:03:29.115Z,30816.00
2019-05-26T12:04:20.102Z,39840.00
2019-05-26T12:05:21.143Z,35840.00
2019-05-26T12:06:20.084Z,33152.00
2019-05-26T12:07:21.194Z,29152.00
2019-05-26T12:08:20.062Z,27520.00
2019-05-26T12:09:21.066Z,25952.00
2019-05-26T12:10:20.053Z,25216.00
2019-05-26T12:11:20.055Z,24320.00
2019-05-26T12:12:20.029Z,23488.00
2019-05-26T12:13:20.070Z,22944.00
2019-05-26T12:14:33.727Z,23168.00
2019-05-26T12:15:20.981Z,23520.00
2019-05-26T12:16:20.091Z,23520.00
2019-05-26T12:17:19.976Z,23296.00